Time,TemperatureF,DewpointF,PressureIn,WindDirection,WindDirectionDegrees,WindSpeedMPH,WindSpeedGustMPH,Humidity,HourlyPrecipIn,Conditions,Clouds,dailyrainin,SoftwareType,DateUTC
2013-03-02 00:00:00,57.6,49.4,29.99,NW,323,5.0,5.0,74,0.00,,,0.00,Wunderground v.1.15,2013-03-02 05:00:00,
2013-03-02 00:10:00,57.5,49.6,29.99,NW,321,5.0,5.0,75,0.00,,,0.00,Wunderground v.1.15,2013-03-02 05:10:00,
2013-03-02 00:20:00,57.2,49.3,29.99,NW,311,5.0,5.0,75,0.00,,,0.00,Wunderground v.1.15,2013-03-02 05:20:00,
2013-03-02 00:30:00,56.9,49.4,29.99,WNW,296,3.0,7.0,76,0.00,,,0.00,Wunderground v.1.15,2013-03-02 05:30:00,
2013-03-02 00:40:00,56.8,49.0,29.99,WNW,297,3.0,6.0,75,0.00,,,0.00,Wunderground v.1.15,2013-03-02 05:40:00,
2013-03-02 00:50:00,56.9,48.7,29.98,WNW,291,5.0,5.0,74,0.00,,,0.00,Wunderground v.1.15,2013-03-02 05:50:00,
2013-03-02 01:00:00,57.0,48.8,29.98,WNW,300,5.0,7.0,74,0.00,,,0.00,Wunderground v.1.15,2013-03-02 06:00:00,
2013-03-02 01:10:00,56.9,48.3,29.99,NW,304,5.0,5.0,73,0.00,,,0.00,Wunderground v.1.15,2013-03-02 06:10:00,
2013-03-02 01:20:00,57.0,48.4,29.98,NW,308,6.0,6.0,73,0.00,,,0.00,Wunderground v.1.15,2013-03-02 06:20:00,
2013-03-02 01:30:00,57.0,48.1,29.99,West,280,6.0,8.0,72,0.00,,,0.00,Wunderground v.1.15,2013-03-02 06:30:00,
2013-03-02 01:40:00,57.0,48.1,29.99,WNW,294,8.0,8.0,72,0.00,,,0.00,Wunderground v.1.15,2013-03-02 06:40:00,
2013-03-02 01:50:00,56.9,47.6,29.98,WNW,293,8.0,8.0,71,0.00,,,0.00,Wunderground v.1.15,2013-03-02 06:50:00,
2013-03-02 02:00:00,56.8,47.1,29.98,WNW,302,7.0,7.0,70,0.00,,,0.00,Wunderground v.1.15,2013-03-02 07:00:00,
2013-03-02 02:10:00,56.7,46.6,29.98,WNW,298,6.0,8.0,69,0.00,,,0.00,Wunderground v.1.15,2013-03-02 07:10:00,
2013-03-02 02:20:00,56.6,46.2,29.98,NW,304,7.0,13.0,68,0.00,,,0.00,Wunderground v.1.15,2013-03-02 07:20:00,
2013-03-02 02:30:00,56.5,45.3,29.98,NW,322,6.0,6.0,66,0.00,,,0.00,Wunderground v.1.15,2013-03-02 07:30:00,
2013-03-02 02:40:00,56.5,44.0,29.98,NW,304,7.0,11.0,63,0.00,,,0.00,Wunderground v.1.15,2013-03-02 07:40:00,
2013-03-02 02:50:00,56.4,42.7,29.97,West,269,8.0,8.0,60,0.00,,,0.00,Wunderground v.1.15,2013-03-02 07:50:00,
2013-03-02 03:00:00,56.3,42.1,29.98,NNW,332,7.0,12.0,59,0.00,,,0.00,Wunderground v.1.15,2013-03-02 08:00:00,
2013-03-02 03:10:00,56.3,42.1,29.98,NW,314,7.0,9.0,59,0.00,,,0.00,Wunderground v.1.15,2013-03-02 08:10:00,
2013-03-02 03:20:00,56.2,42.5,29.98,WNW,302,6.0,6.0,60,0.00,,,0.00,Wunderground v.1.15,2013-03-02 08:20:00,
2013-03-02 03:30:00,56.1,42.4,29.98,North,358,7.0,9.0,60,0.00,,,0.00,Wunderground v.1.15,2013-03-02 08:30:00,
2013-03-02 03:40:00,56.0,42.3,29.98,WNW,297,7.0,8.0,60,0.00,,,0.00,Wunderground v.1.15,2013-03-02 08:40:00,
2013-03-02 03:50:00,55.9,43.1,29.98,NNW,345,6.0,6.0,62,0.00,,,0.00,Wunderground v.1.15,2013-03-02 08:50:00,
2013-03-02 04:00:00,55.7,42.9,29.99,WNW,298,6.0,9.0,62,0.00,,,0.00,Wunderground v.1.15,2013-03-02 09:00:00,
2013-03-02 04:10:00,55.5,42.7,29.98,NNW,335,8.0,8.0,62,0.00,,,0.00,Wunderground v.1.15,2013-03-02 09:10:00,
2013-03-02 04:20:00,55.5,43.1,29.98,WNW,283,6.0,6.0,63,0.00,,,0.00,Wunderground v.1.15,2013-03-02 09:20:00,
2013-03-02 04:30:00,55.4,43.0,29.99,NW,308,6.0,6.0,63,0.00,,,0.00,Wunderground v.1.15,2013-03-02 09:30:00,
2013-03-02 04:40:00,55.4,43.0,29.99,WNW,297,7.0,8.0,63,0.00,,,0.00,Wunderground v.1.15,2013-03-02 09:40:00,
2013-03-02 04:50:00,55.3,43.3,29.99,NW,316,7.0,8.0,64,0.00,,,0.00,Wunderground v.1.15,2013-03-02 09:50:00,
2013-03-02 05:00:00,55.2,43.2,29.99,NW,326,8.0,8.0,64,0.00,,,0.00,Wunderground v.1.15,2013-03-02 10:00:00,
2013-03-02 05:10:00,55.1,43.5,29.99,WNW,300,7.0,7.0,65,0.00,,,0.00,Wunderground v.1.15,2013-03-02 10:10:00,
2013-03-02 05:20:00,55.0,43.4,29.99,NW,318,6.0,6.0,65,0.00,,,0.00,Wunderground v.1.15,2013-03-02 10:20:00,
2013-03-02 05:30:00,55.0,43.8,30.00,WNW,302,7.0,7.0,66,0.00,,,0.00,Wunderground v.1.15,2013-03-02 10:30:00,
2013-03-02 05:40:00,55.0,43.8,30.00,NW,310,7.0,11.0,66,0.00,,,0.00,Wunderground v.1.15,2013-03-02 10:40:00,
2013-03-02 05:50:00,54.9,44.1,30.00,North,354,7.0,7.0,67,0.00,,,0.00,Wunderground v.1.15,2013-03-02 10:50:00,
2013-03-02 06:00:00,54.9,43.7,30.01,NW,316,8.0,8.0,66,0.00,,,0.00,Wunderground v.1.15,2013-03-02 11:00:00,
2013-03-02 06:10:00,54.8,43.7,30.01,WNW,288,6.0,6.0,66,0.00,,,0.00,Wunderground v.1.15,2013-03-02 11:10:00,
2013-03-02 06:20:00,54.7,44.0,30.02,NW,311,7.0,8.0,67,0.00,,,0.00,Wunderground v.1.15,2013-03-02 11:20:00,
2013-03-02 06:30:00,54.7,44.3,30.02,NW,312,5.0,8.0,68,0.00,,,0.00,Wunderground v.1.15,2013-03-02 11:30:00,
2013-03-02 06:40:00,54.5,44.2,30.03,NNW,328,5.0,5.0,68,0.00,,,0.00,Wunderground v.1.15,2013-03-02 11:40:00,
2013-03-02 06:50:00,54.3,44.0,30.03,North,349,6.0,9.0,68,0.00,,,0.00,Wunderground v.1.15,2013-03-02 11:50:00,
2013-03-02 07:00:00,54.1,43.8,30.03,NW,319,8.0,8.0,68,0.00,,,0.00,Wunderground v.1.15,2013-03-02 12:00:00,
2013-03-02 07:10:00,54.1,43.8,30.04,North,352,5.0,5.0,68,0.00,,,0.00,Wunderground v.1.15,2013-03-02 12:10:00,
2013-03-02 07:20:00,53.9,43.2,30.04,NW,323,7.0,12.0,67,0.00,,,0.00,Wunderground v.1.15,2013-03-02 12:20:00,
2013-03-02 07:30:00,53.7,42.6,30.04,NW,309,8.0,8.0,66,0.00,,,0.00,Wunderground v.1.15,2013-03-02 12:30:00,
2013-03-02 07:40:00,53.6,42.1,30.04,NNW,328,8.0,8.0,65,0.00,,,0.00,Wunderground v.1.15,2013-03-02 12:40:00,
2013-03-02 07:50:00,53.5,41.2,30.04,NNW,335,7.0,7.0,63,0.00,,,0.00,Wunderground v.1.15,2013-03-02 12:50:00,
2013-03-02 08:00:00,53.5,41.6,30.05,WNW,302,6.0,6.0,64,0.00,,,0.00,Wunderground v.1.15,2013-03-02 13:00:00,
2013-03-02 08:10:00,53.4,41.9,30.05,NNW,334,5.0,9.0,65,0.00,,,0.00,Wunderground v.1.15,2013-03-02 13:10:00,
2013-03-02 08:20:00,53.4,40.7,30.05,NNW,330,7.0,7.0,62,0.00,,,0.00,Wunderground v.1.15,2013-03-02 13:20:00,
2013-03-02 08:30:00,53.2,39.2,30.05,NW,318,8.0,10.0,59,0.00,,,0.00,Wunderground v.1.15,2013-03-02 13:30:00,
2013-03-02 08:40:00,53.1,38.3,30.05,NNW,335,7.0,7.0,57,0.00,,,0.00,Wunderground v.1.15,2013-03-02 13:40:00,
2013-03-02 08:50:00,53.3,37.5,30.04,WNW,302,7.0,8.0,55,0.00,,,0.00,Wunderground v.1.15,2013-03-02 13:50:00,
2013-03-02 09:00:00,53.5,35.8,30.05,NW,322,8.0,8.0,51,0.00,,,0.00,Wunderground v.1.15,2013-03-02 14:00:00,
2013-03-02 09:10:00,53.6,36.4,30.05,NNW,337,5.0,5.0,52,0.00,,,0.00,Wunderground v.1.15,2013-03-02 14:10:00,
2013-03-02 09:20:00,53.8,36.1,30.05,North,5,4.0,7.0,51,0.00,,,0.00,Wunderground v.1.15,2013-03-02 14:20:00,
2013-03-02 09:30:00,54.2,35.9,30.05,NW,307,3.0,3.0,50,0.00,,,0.00,Wunderground v.1.15,2013-03-02 14:30:00,
2013-03-02 09:40:00,55.0,35.7,30.04,NW,316,3.0,5.0,48,0.00,,,0.00,Wunderground v.1.15,2013-03-02 14:40:00,
2013-03-02 09:50:00,55.5,36.1,30.04,WNW,301,3.0,3.0,48,0.00,,,0.00,Wunderground v.1.15,2013-03-02 14:50:00,
2013-03-02 10:00:00,55.8,36.4,30.05,NW,316,2.0,3.0,48,0.00,,,0.00,Wunderground v.1.15,2013-03-02 15:00:00,
2013-03-02 10:10:00,56.1,36.7,30.05,WNW,296,2.0,2.0,48,0.00,,,0.00,Wunderground v.1.15,2013-03-02 15:10:00,
2013-03-02 10:20:00,56.3,36.8,30.04,North,356,3.0,5.0,48,0.00,,,0.00,Wunderground v.1.15,2013-03-02 15:20:00,
2013-03-02 10:30:00,56.4,36.4,30.04,WSW,250,4.0,4.0,47,0.00,,,0.00,Wunderground v.1.15,2013-03-02 15:30:00,
2013-03-02 10:40:00,56.9,36.9,30.05,WNW,297,4.0,4.0,47,0.00,,,0.00,Wunderground v.1.15,2013-03-02 15:40:00,
2013-03-02 10:50:00,57.7,35.9,30.03,North,358,5.0,7.0,44,0.00,,,0.00,Wunderground v.1.15,2013-03-02 15:50:00,
2013-03-02 11:00:00,58.0,37.9,30.04,NW,312,5.0,5.0,47,0.00,,,0.00,Wunderground v.1.15,2013-03-02 16:00:00,
2013-03-02 11:10:00,58.8,37.5,30.04,NW,314,3.0,5.0,45,0.00,,,0.00,Wunderground v.1.15,2013-03-02 16:10:00,
2013-03-02 11:20:00,59.0,38.2,30.03,West,280,5.0,5.0,46,0.00,,,0.00,Wunderground v.1.15,2013-03-02 16:20:00,
2013-03-02 11:30:00,59.0,38.2,30.04,NNW,342,6.0,6.0,46,0.00,,,0.00,Wunderground v.1.15,2013-03-02 16:30:00,
2013-03-02 11:40:00,59.7,38.9,30.03,WNW,293,5.0,7.0,46,0.00,,,0.00,Wunderground v.1.15,2013-03-02 16:40:00,
2013-03-02 11:50:00,59.9,39.1,30.03,NW,311,8.0,8.0,46,0.00,,,0.00,Wunderground v.1.15,2013-03-02 16:50:00,
2013-03-02 12:00:00,60.2,39.3,30.02,NW,322,7.0,7.0,46,0.00,,,0.00,Wunderground v.1.15,2013-03-02 17:00:00,
2013-03-02 12:10:00,60.4,38.9,30.01,WNW,298,7.0,11.0,45,0.00,,,0.00,Wunderground v.1.15,2013-03-02 17:10:00,
2013-03-02 12:20:00,62.3,40.7,30.00,NNW,328,7.0,7.0,45,0.00,,,0.00,Wunderground v.1.15,2013-03-02 17:20:00,
2013-03-02 12:30:00,62.6,40.4,30.00,WNW,300,10.0,10.0,44,0.00,,,0.00,Wunderground v.1.15,2013-03-02 17:30:00,
2013-03-02 12:40:00,61.9,40.9,30.00,WNW,298,11.0,13.0,46,0.00,,,0.00,Wunderground v.1.15,2013-03-02 17:40:00,
2013-03-02 12:50:00,62.4,41.9,30.00,NW,314,11.0,11.0,47,0.00,,,0.00,Wunderground v.1.15,2013-03-02 17:50:00,
2013-03-02 13:00:00,62.7,42.2,30.00,NW,318,9.0,9.0,47,0.00,,,0.00,Wunderground v.1.15,2013-03-02 18:00:00,
2013-03-02 13:10:00,62.7,41.6,30.00,NW,312,9.0,14.0,46,0.00,,,0.00,Wunderground v.1.15,2013-03-02 18:10:00,
2013-03-02 13:20:00,62.9,42.9,29.99,WNW,298,9.0,10.0,48,0.00,,,0.00,Wunderground v.1.15,2013-03-02 18:20:00,
2013-03-02 13:30:00,63.0,43.0,29.99,NW,304,8.0,14.0,48,0.00,,,0.00,Wunderground v.1.15,2013-03-02 18:30:00,
2013-03-02 13:40:00,63.0,43.5,29.98,NW,316,12.0,17.0,49,0.00,,,0.00,Wunderground v.1.15,2013-03-02 18:40:00,
2013-03-02 13:50:00,63.6,43.5,29.98,WNW,300,9.0,18.0,48,0.00,,,0.00,Wunderground v.1.15,2013-03-02 18:50:00,
2013-03-02 14:00:00,63.2,43.2,29.97,WNW,302,13.0,13.0,48,0.00,,,0.00,Wunderground v.1.15,2013-03-02 19:00:00,
2013-03-02 14:10:00,63.0,43.5,29.98,WNW,295,14.0,14.0,49,0.00,,,0.00,Wunderground v.1.15,2013-03-02 19:10:00,
2013-03-02 14:20:00,63.4,43.9,29.98,North,9,10.0,16.0,49,0.00,,,0.00,Wunderground v.1.15,2013-03-02 19:20:00,
2013-03-02 14:30:00,63.5,43.4,29.98,NNW,338,12.0,12.0,48,0.00,,,0.00,Wunderground v.1.15,2013-03-02 19:30:00,
2013-03-02 14:40:00,63.2,43.2,29.98,NW,312,13.0,24.0,48,0.00,,,0.00,Wunderground v.1.15,2013-03-02 19:40:00,
2013-03-02 14:50:00,62.9,42.9,29.98,WNW,302,13.0,16.0,48,0.00,,,0.00,Wunderground v.1.15,2013-03-02 19:50:00,
2013-03-02 15:00:00,62.5,42.0,29.98,NW,309,14.0,14.0,47,0.00,,,0.00,Wunderground v.1.15,2013-03-02 20:00:00,
2013-03-02 15:10:00,62.9,42.4,29.98,NNW,332,11.0,11.0,47,0.00,,,0.00,Wunderground v.1.15,2013-03-02 20:10:00,
2013-03-02 15:20:00,62.2,41.2,29.98,WNW,286,12.0,12.0,46,0.00,,,0.00,Wunderground v.1.15,2013-03-02 20:20:00,
2013-03-02 15:30:00,62.1,41.1,29.98,WNW,290,12.0,12.0,46,0.00,,,0.00,Wunderground v.1.15,2013-03-02 20:30:00,
2013-03-02 15:40:00,61.9,41.4,29.98,NE,43,11.0,11.0,47,0.00,,,0.00,Wunderground v.1.15,2013-03-02 20:40:00,
2013-03-02 15:50:00,61.8,41.9,29.98,NW,311,10.0,10.0,48,0.00,,,0.00,Wunderground v.1.15,2013-03-02 20:50:00,
2013-03-02 16:00:00,61.4,41.5,29.98,NW,312,9.0,9.0,48,0.00,,,0.00,Wunderground v.1.15,2013-03-02 21:00:00,
2013-03-02 16:10:00,61.2,41.9,29.98,NE,56,8.0,8.0,49,0.00,,,0.00,Wunderground v.1.15,2013-03-02 21:10:00,
2013-03-02 16:20:00,61.3,41.4,29.98,NW,311,7.0,7.0,48,0.00,,,0.00,Wunderground v.1.15,2013-03-02 21:20:00,
2013-03-02 16:30:00,61.2,41.9,29.98,West,281,7.0,7.0,49,0.00,,,0.00,Wunderground v.1.15,2013-03-02 21:30:00,
2013-03-02 16:40:00,60.9,41.1,29.98,WNW,296,8.0,14.0,48,0.00,,,0.00,Wunderground v.1.15,2013-03-02 21:40:00,
2013-03-02 16:50:00,60.3,41.6,29.98,WNW,295,9.0,9.0,50,0.00,,,0.00,Wunderground v.1.15,2013-03-02 21:50:00,
2013-03-02 17:00:00,60.1,41.9,29.99,WNW,300,6.0,7.0,51,0.00,,,0.00,Wunderground v.1.15,2013-03-02 22:00:00,
2013-03-02 17:10:00,60.0,41.8,29.99,WNW,298,6.0,6.0,51,0.00,,,0.00,Wunderground v.1.15,2013-03-02 22:10:00,
2013-03-02 17:20:00,60.0,42.3,29.99,WNW,294,7.0,7.0,52,0.00,,,0.00,Wunderground v.1.15,2013-03-02 22:20:00,
2013-03-02 17:30:00,59.7,42.0,30.00,NW,312,7.0,7.0,52,0.00,,,0.00,Wunderground v.1.15,2013-03-02 22:30:00,
2013-03-02 17:40:00,59.9,42.2,30.00,West,278,7.0,7.0,52,0.00,,,0.00,Wunderground v.1.15,2013-03-02 22:40:00,
2013-03-02 17:50:00,59.9,42.2,30.00,WSW,258,6.0,6.0,52,0.00,,,0.00,Wunderground v.1.15,2013-03-02 22:50:00,
2013-03-02 18:00:00,59.3,42.6,30.00,NNW,340,5.0,7.0,54,0.00,,,0.00,Wunderground v.1.15,2013-03-02 23:00:00,
2013-03-02 18:10:00,59.0,43.3,30.00,West,277,3.0,3.0,56,0.00,,,0.00,Wunderground v.1.15,2013-03-02 23:10:00,
2013-03-02 18:20:00,58.6,42.9,30.01,NW,326,5.0,5.0,56,0.00,,,0.00,Wunderground v.1.15,2013-03-02 23:20:00,
2013-03-02 18:30:00,58.2,42.6,30.01,WNW,300,7.0,7.0,56,0.00,,,0.00,Wunderground v.1.15,2013-03-02 23:30:00,
2013-03-02 18:40:00,57.8,42.2,30.02,NW,322,7.0,7.0,56,0.00,,,0.00,Wunderground v.1.15,2013-03-02 23:40:00,
2013-03-02 18:50:00,57.5,42.4,30.02,WNW,294,5.0,5.0,57,0.00,,,0.00,Wunderground v.1.15,2013-03-02 23:50:00,
2013-03-02 19:00:00,57.1,42.0,30.02,NW,310,4.0,4.0,57,0.00,,,0.00,Wunderground v.1.15,2013-03-03 00:00:00,
2013-03-02 19:10:00,56.8,42.2,30.03,WNW,302,3.0,6.0,58,0.00,,,0.00,Wunderground v.1.15,2013-03-03 00:10:00,
2013-03-02 19:20:00,56.7,42.1,30.03,WNW,287,4.0,4.0,58,0.00,,,0.00,Wunderground v.1.15,2013-03-03 00:20:00,
2013-03-02 19:30:00,56.5,42.3,30.03,WNW,302,4.0,4.0,59,0.00,,,0.00,Wunderground v.1.15,2013-03-03 00:30:00,
2013-03-02 19:40:00,56.3,42.6,30.04,WNW,293,3.0,3.0,60,0.00,,,0.00,Wunderground v.1.15,2013-03-03 00:40:00,
2013-03-02 19:50:00,56.3,42.6,30.04,West,280,4.0,4.0,60,0.00,,,0.00,Wunderground v.1.15,2013-03-03 00:50:00,
2013-03-02 20:00:00,56.3,43.0,30.05,NW,314,4.0,4.0,61,0.00,,,0.00,Wunderground v.1.15,2013-03-03 01:00:00,
2013-03-02 20:10:00,56.1,42.8,30.05,WNW,292,4.0,4.0,61,0.00,,,0.00,Wunderground v.1.15,2013-03-03 01:10:00,
2013-03-02 20:20:00,55.9,43.1,30.05,WNW,302,3.0,3.0,62,0.00,,,0.00,Wunderground v.1.15,2013-03-03 01:20:00,
2013-03-02 20:30:00,55.6,42.8,30.05,WNW,293,1.0,1.0,62,0.00,,,0.00,Wunderground v.1.15,2013-03-03 01:30:00,
2013-03-02 20:40:00,55.5,43.1,30.05,West,273,2.0,2.0,63,0.00,,,0.00,Wunderground v.1.15,2013-03-03 01:40:00,
2013-03-02 20:50:00,55.1,43.1,30.05,West,269,0.0,0.0,64,0.00,,,0.00,Wunderground v.1.15,2013-03-03 01:50:00,
2013-03-02 21:00:00,54.8,43.7,30.05,West,269,0.0,0.0,66,0.00,,,0.00,Wunderground v.1.15,2013-03-03 02:00:00,
2013-03-02 21:10:00,54.4,43.7,30.05,WSW,256,0.0,0.0,67,0.00,,,0.00,Wunderground v.1.15,2013-03-03 02:10:00,
2013-03-02 21:20:00,54.5,43.8,30.05,WNW,294,1.0,1.0,67,0.00,,,0.00,Wunderground v.1.15,2013-03-03 02:20:00,
2013-03-02 21:30:00,54.4,43.7,30.05,WSW,246,1.0,2.0,67,0.00,,,0.00,Wunderground v.1.15,2013-03-03 02:30:00,
2013-03-02 21:40:00,54.4,43.7,30.06,WSW,256,1.0,1.0,67,0.00,,,0.00,Wunderground v.1.15,2013-03-03 02:40:00,
2013-03-02 21:50:00,54.6,43.1,30.06,NW,307,2.0,2.0,65,0.00,,,0.00,Wunderground v.1.15,2013-03-03 02:50:00,
2013-03-02 22:00:00,54.9,42.9,30.06,NW,304,3.0,3.0,64,0.00,,,0.00,Wunderground v.1.15,2013-03-03 03:00:00,
2013-03-02 22:10:00,54.7,43.2,30.05,WSW,243,1.0,1.0,65,0.00,,,0.00,Wunderground v.1.15,2013-03-03 03:10:00,
2013-03-02 22:20:00,54.4,42.9,30.05,West,273,1.0,1.0,65,0.00,,,0.00,Wunderground v.1.15,2013-03-03 03:20:00,
2013-03-02 22:30:00,53.9,42.8,30.05,West,259,1.0,2.0,66,0.00,,,0.00,Wunderground v.1.15,2013-03-03 03:30:00,
2013-03-02 22:40:00,53.5,42.8,30.05,West,262,1.0,1.0,67,0.00,,,0.00,Wunderground v.1.15,2013-03-03 03:40:00,
2013-03-02 22:50:00,53.1,42.8,30.05,West,259,1.0,1.0,68,0.00,,,0.00,Wunderground v.1.15,2013-03-03 03:50:00,
2013-03-02 23:00:00,52.7,42.8,30.05,West,274,1.0,2.0,69,0.00,,,0.00,Wunderground v.1.15,2013-03-03 04:00:00,
2013-03-02 23:10:00,52.4,42.9,30.05,West,278,1.0,2.0,70,0.00,,,0.00,Wunderground v.1.15,2013-03-03 04:10:00,
2013-03-02 23:20:00,52.2,42.7,30.04,West,267,1.0,2.0,70,0.00,,,0.00,Wunderground v.1.15,2013-03-03 04:20:00,
2013-03-02 23:30:00,51.9,42.8,30.04,West,266,0.0,0.0,71,0.00,,,0.00,Wunderground v.1.15,2013-03-03 04:30:00,
2013-03-02 23:40:00,51.5,42.8,30.04,West,281,0.0,0.0,72,0.00,,,0.00,Wunderground v.1.15,2013-03-03 04:40:00,
2013-03-02 23:50:00,51.2,43.2,30.03,NW,312,0.0,2.0,74,0.00,,,0.00,Wunderground v.1.15,2013-03-03 04:50:00,